sensor_id;sensor_type;location;lat;lon;timestamp;temperature;humidity
14119;DHT22;7138;49.246;9.100;2023-03-30T00:00:12;11.40;99.90
14119;DHT22;7138;49.246;9.100;2023-03-30T00:02:43;11.30;99.90
14119;DHT22;7138;49.246;9.100;2023-03-30T00:05:10;11.40;99.90
14119;DHT22;7138;49.246;9.100;2023-03-30T00:07:38;11.40;99.90
14119;DHT22;7138;49.246;9.100;2023-03-30T00:10:08;11.40;99.90
14119;DHT22;7138;49.246;9.100;2023-03-30T00:12:36;11.20;99.90
14119;DHT22;7138;49.246;9.100;2023-03-30T00:15:02;11.10;99.90
14119;DHT22;7138;49.246;9.100;2023-03-30T00:17:30;10.90;99.90
14119;DHT22;7138;49.246;9.100;2023-03-30T00:19:58;10.80;99.90
14119;DHT22;7138;49.246;9.100;2023-03-30T00:22:26;10.50;99.90
14119;DHT22;7138;49.246;9.100;2023-03-30T00:24:52;10.40;99.90
14119;DHT22;7138;49.246;9.100;2023-03-30T00:27:18;10.30;99.90
14119;DHT22;7138;49.246;9.100;2023-03-30T00:29:45;10.20;99.90
14119;DHT22;7138;49.246;9.100;2023-03-30T00:32:11;10.20;99.90
14119;DHT22;7138;49.246;9.100;2023-03-30T00:34:37;10.20;99.90
14119;DHT22;7138;49.246;9.100;2023-03-30T00:37:03;10.20;99.90
14119;DHT22;7138;49.246;9.100;2023-03-30T00:39:29;10.20;99.90
14119;DHT22;7138;49.246;9.100;2023-03-30T00:41:55;10.30;99.90
14119;DHT22;7138;49.246;9.100;2023-03-30T00:47:36;10.30;99.90
14119;DHT22;7138;49.246;9.100;2023-03-30T00:50:06;10.40;99.90
14119;DHT22;7138;49.246;9.100;2023-03-30T00:52:34;10.40;99.90
14119;DHT22;7138;49.246;9.100;2023-03-30T00:55:03;10.50;99.90
14119;DHT22;7138;49.246;9.100;2023-03-30T00:57:32;10.50;99.90
14119;DHT22;7138;49.246;9.100;2023-03-30T01:00:01;10.40;99.90
14119;DHT22;7138;49.246;9.100;2023-03-30T01:02:32;10.40;99.90
14119;DHT22;7138;49.246;9.100;2023-03-30T01:05:03;10.50;99.90
14119;DHT22;7138;49.246;9.100;2023-03-30T01:07:31;10.50;99.90
14119;DHT22;7138;49.246;9.100;2023-03-30T01:10:00;10.50;99.90
14119;DHT22;7138;49.246;9.100;2023-03-30T01:12:26;10.50;99.90
14119;DHT22;7138;49.246;9.100;2023-03-30T01:14:54;10.50;99.90
14119;DHT22;7138;49.246;9.100;2023-03-30T01:17:25;10.60;99.90
14119;DHT22;7138;49.246;9.100;2023-03-30T01:23:52;10.60;99.90
14119;DHT22;7138;49.246;9.100;2023-03-30T01:26:53;10.80;99.90
14119;DHT22;7138;49.246;9.100;2023-03-30T01:29:34;11.10;99.90
14119;DHT22;7138;49.246;9.100;2023-03-30T01:36:05;11.10;99.90
14119;DHT22;7138;49.246;9.100;2023-03-30T01:39:16;11.00;99.90
14119;DHT22;7138;49.246;9.100;2023-03-30T01:41:55;11.10;99.90
14119;DHT22;7138;49.246;9.100;2023-03-30T01:44:32;11.10;99.90
14119;DHT22;7138;49.246;9.100;2023-03-30T01:47:16;11.10;99.90
14119;DHT22;7138;49.246;9.100;2023-03-30T01:49:55;11.20;99.90
14119;DHT22;7138;49.246;9.100;2023-03-30T01:52:28;11.40;99.90
14119;DHT22;7138;49.246;9.100;2023-03-30T01:55:01;11.30;99.90
14119;DHT22;7138;49.246;9.100;2023-03-30T01:57:34;11.30;99.90
14119;DHT22;7138;49.246;9.100;2023-03-30T02:00:08;11.30;99.90
14119;DHT22;7138;49.246;9.100;2023-03-30T02:02:42;11.30;99.90
14119;DHT22;7138;49.246;9.100;2023-03-30T02:05:14;11.30;99.90
14119;DHT22;7138;49.246;9.100;2023-03-30T02:07:45;11.30;99.90
14119;DHT22;7138;49.246;9.100;2023-03-30T02:10:17;11.30;99.90
14119;DHT22;7138;49.246;9.100;2023-03-30T02:12:46;11.40;99.90
14119;DHT22;7138;49.246;9.100;2023-03-30T02:15:15;11.30;99.90
14119;DHT22;7138;49.246;9.100;2023-03-30T02:17:43;11.30;99.90
14119;DHT22;7138;49.246;9.100;2023-03-30T02:20:12;11.30;99.90
14119;DHT22;7138;49.246;9.100;2023-03-30T02:22:41;11.30;99.90
14119;DHT22;7138;49.246;9.100;2023-03-30T02:25:09;11.30;99.90
14119;DHT22;7138;49.246;9.100;2023-03-30T02:27:36;11.30;99.90
14119;DHT22;7138;49.246;9.100;2023-03-30T02:30:04;11.30;99.90
14119;DHT22;7138;49.246;9.100;2023-03-30T02:32:38;11.30;99.90
14119;DHT22;7138;49.246;9.100;2023-03-30T02:35:18;11.30;99.90
14119;DHT22;7138;49.246;9.100;2023-03-30T02:38:14;11.30;99.90
14119;DHT22;7138;49.246;9.100;2023-03-30T02:40:57;11.30;99.90
14119;DHT22;7138;49.246;9.100;2023-03-30T02:43:40;11.20;99.90
14119;DHT22;7138;49.246;9.100;2023-03-30T02:46:20;11.20;99.90
14119;DHT22;7138;49.246;9.100;2023-03-30T02:49:11;11.20;99.90
14119;DHT22;7138;49.246;9.100;2023-03-30T02:51:44;11.00;99.90
14119;DHT22;7138;49.246;9.100;2023-03-30T02:54:22;11.00;99.90
14119;DHT22;7138;49.246;9.100;2023-03-30T02:57:11;10.80;99.90
14119;DHT22;7138;49.246;9.100;2023-03-30T02:59:50;10.70;99.90
14119;DHT22;7138;49.246;9.100;2023-03-30T03:02:26;10.50;99.90
14119;DHT22;7138;49.246;9.100;2023-03-30T03:04:56;10.60;99.90
14119;DHT22;7138;49.246;9.100;2023-03-30T03:07:24;10.60;99.90
14119;DHT22;7138;49.246;9.100;2023-03-30T03:09:52;10.60;99.90
14119;DHT22;7138;49.246;9.100;2023-03-30T03:12:18;10.60;99.90
14119;DHT22;7138;49.246;9.100;2023-03-30T03:14:45;10.50;99.90
14119;DHT22;7138;49.246;9.100;2023-03-30T03:17:11;10.40;99.90
14119;DHT22;7138;49.246;9.100;2023-03-30T03:19:39;10.50;99.90
14119;DHT22;7138;49.246;9.100;2023-03-30T03:22:05;10.50;99.90
14119;DHT22;7138;49.246;9.100;2023-03-30T03:24:31;10.30;99.90
14119;DHT22;7138;49.246;9.100;2023-03-30T03:26:58;10.00;99.90
14119;DHT22;7138;49.246;9.100;2023-03-30T03:29:24;9.90;99.90
14119;DHT22;7138;49.246;9.100;2023-03-30T03:31:51;10.00;99.90
14119;DHT22;7138;49.246;9.100;2023-03-30T03:34:17;10.00;99.90
14119;DHT22;7138;49.246;9.100;2023-03-30T03:36:43;10.10;99.90
14119;DHT22;7138;49.246;9.100;2023-03-30T03:39:08;10.10;99.90
14119;DHT22;7138;49.246;9.100;2023-03-30T03:41:34;10.10;99.90
14119;DHT22;7138;49.246;9.100;2023-03-30T03:44:00;10.10;99.90
14119;DHT22;7138;49.246;9.100;2023-03-30T03:46:26;10.10;99.90
14119;DHT22;7138;49.246;9.100;2023-03-30T03:48:53;10.10;99.90
14119;DHT22;7138;49.246;9.100;2023-03-30T03:51:19;10.10;99.90
14119;DHT22;7138;49.246;9.100;2023-03-30T03:53:44;10.10;99.90
14119;DHT22;7138;49.246;9.100;2023-03-30T03:56:12;10.10;99.90
14119;DHT22;7138;49.246;9.100;2023-03-30T03:58:39;10.20;99.90
14119;DHT22;7138;49.246;9.100;2023-03-30T04:01:05;10.20;99.90
14119;DHT22;7138;49.246;9.100;2023-03-30T04:03:31;10.20;99.90
14119;DHT22;7138;49.246;9.100;2023-03-30T04:05:59;10.30;99.90
14119;DHT22;7138;49.246;9.100;2023-03-30T04:08:27;10.50;99.90
14119;DHT22;7138;49.246;9.100;2023-03-30T04:10:53;10.40;99.90
14119;DHT22;7138;49.246;9.100;2023-03-30T04:13:19;10.30;99.90
14119;DHT22;7138;49.246;9.100;2023-03-30T04:15:45;10.30;99.90
14119;DHT22;7138;49.246;9.100;2023-03-30T04:18:11;10.20;99.90
14119;DHT22;7138;49.246;9.100;2023-03-30T04:20:37;10.30;99.90
14119;DHT22;7138;49.246;9.100;2023-03-30T04:23:04;10.40;99.90
14119;DHT22;7138;49.246;9.100;2023-03-30T04:25:30;10.30;99.90
14119;DHT22;7138;49.246;9.100;2023-03-30T04:27:56;10.10;99.90
14119;DHT22;7138;49.246;9.100;2023-03-30T04:30:22;10.00;99.90
14119;DHT22;7138;49.246;9.100;2023-03-30T04:32:48;10.00;99.90
14119;DHT22;7138;49.246;9.100;2023-03-30T04:35:28;9.90;99.90
14119;DHT22;7138;49.246;9.100;2023-03-30T04:37:55;10.00;99.90
14119;DHT22;7138;49.246;9.100;2023-03-30T04:40:24;10.00;99.90
14119;DHT22;7138;49.246;9.100;2023-03-30T04:42:49;10.00;99.90
14119;DHT22;7138;49.246;9.100;2023-03-30T04:45:16;10.00;99.90
14119;DHT22;7138;49.246;9.100;2023-03-30T04:47:43;10.00;99.90
14119;DHT22;7138;49.246;9.100;2023-03-30T04:50:09;10.00;99.90
14119;DHT22;7138;49.246;9.100;2023-03-30T04:52:35;10.00;99.90
14119;DHT22;7138;49.246;9.100;2023-03-30T04:55:01;10.10;99.90
14119;DHT22;7138;49.246;9.100;2023-03-30T04:57:29;10.20;99.90
14119;DHT22;7138;49.246;9.100;2023-03-30T04:59:55;10.30;99.90
14119;DHT22;7138;49.246;9.100;2023-03-30T05:02:21;10.50;99.90
14119;DHT22;7138;49.246;9.100;2023-03-30T05:04:47;11.00;99.90
14119;DHT22;7138;49.246;9.100;2023-03-30T05:07:12;11.20;99.90
14119;DHT22;7138;49.246;9.100;2023-03-30T05:09:39;11.20;99.90
14119;DHT22;7138;49.246;9.100;2023-03-30T05:12:05;11.30;99.90
14119;DHT22;7138;49.246;9.100;2023-03-30T05:14:32;11.40;99.90
14119;DHT22;7138;49.246;9.100;2023-03-30T05:16:58;11.30;99.90
14119;DHT22;7138;49.246;9.100;2023-03-30T05:19:24;11.40;99.90
14119;DHT22;7138;49.246;9.100;2023-03-30T05:21:50;11.40;99.90
14119;DHT22;7138;49.246;9.100;2023-03-30T05:24:16;11.30;99.90
14119;DHT22;7138;49.246;9.100;2023-03-30T05:26:41;11.40;99.90
14119;DHT22;7138;49.246;9.100;2023-03-30T05:29:08;11.40;99.90
14119;DHT22;7138;49.246;9.100;2023-03-30T05:31:35;11.30;99.90
14119;DHT22;7138;49.246;9.100;2023-03-30T05:34:01;11.40;99.90
14119;DHT22;7138;49.246;9.100;2023-03-30T05:36:27;11.40;99.90
14119;DHT22;7138;49.246;9.100;2023-03-30T05:38:53;11.40;99.90
14119;DHT22;7138;49.246;9.100;2023-03-30T05:41:19;11.40;99.90
14119;DHT22;7138;49.246;9.100;2023-03-30T05:43:45;11.40;99.90
14119;DHT22;7138;49.246;9.100;2023-03-30T05:46:12;11.40;99.90
14119;DHT22;7138;49.246;9.100;2023-03-30T05:48:39;11.40;99.90
14119;DHT22;7138;49.246;9.100;2023-03-30T05:51:05;11.40;99.90
14119;DHT22;7138;49.246;9.100;2023-03-30T05:53:32;11.30;99.90
14119;DHT22;7138;49.246;9.100;2023-03-30T05:55:58;11.40;99.90
14119;DHT22;7138;49.246;9.100;2023-03-30T05:58:23;11.40;99.90
14119;DHT22;7138;49.246;9.100;2023-03-30T06:00:49;11.40;99.90
14119;DHT22;7138;49.246;9.100;2023-03-30T06:03:16;11.30;99.90
14119;DHT22;7138;49.246;9.100;2023-03-30T06:05:44;11.30;99.90
14119;DHT22;7138;49.246;9.100;2023-03-30T06:08:10;11.30;99.90
14119;DHT22;7138;49.246;9.100;2023-03-30T06:10:37;11.30;99.90
14119;DHT22;7138;49.246;9.100;2023-03-30T06:13:03;11.30;99.90
14119;DHT22;7138;49.246;9.100;2023-03-30T06:15:29;11.40;99.90
14119;DHT22;7138;49.246;9.100;2023-03-30T06:17:55;11.30;99.90
14119;DHT22;7138;49.246;9.100;2023-03-30T06:20:23;11.30;99.90
14119;DHT22;7138;49.246;9.100;2023-03-30T06:22:51;11.40;99.90
14119;DHT22;7138;49.246;9.100;2023-03-30T06:25:18;11.40;99.90
14119;DHT22;7138;49.246;9.100;2023-03-30T06:27:48;11.40;99.90
14119;DHT22;7138;49.246;9.100;2023-03-30T06:30:14;11.40;99.90
14119;DHT22;7138;49.246;9.100;2023-03-30T06:32:40;11.40;99.90
14119;DHT22;7138;49.246;9.100;2023-03-30T06:35:07;11.40;99.90
14119;DHT22;7138;49.246;9.100;2023-03-30T06:37:33;11.40;99.90
14119;DHT22;7138;49.246;9.100;2023-03-30T06:40:02;11.40;99.90
14119;DHT22;7138;49.246;9.100;2023-03-30T06:42:37;11.50;99.90
14119;DHT22;7138;49.246;9.100;2023-03-30T06:45:04;11.50;99.90
14119;DHT22;7138;49.246;9.100;2023-03-30T06:47:31;11.50;99.90
14119;DHT22;7138;49.246;9.100;2023-03-30T06:49:56;11.50;99.90
14119;DHT22;7138;49.246;9.100;2023-03-30T06:52:22;11.50;99.90
14119;DHT22;7138;49.246;9.100;2023-03-30T06:54:48;11.50;99.90
14119;DHT22;7138;49.246;9.100;2023-03-30T06:57:15;11.60;99.90
14119;DHT22;7138;49.246;9.100;2023-03-30T06:59:41;11.60;99.90
14119;DHT22;7138;49.246;9.100;2023-03-30T07:02:11;11.60;99.90
14119;DHT22;7138;49.246;9.100;2023-03-30T07:04:38;11.60;99.90
14119;DHT22;7138;49.246;9.100;2023-03-30T07:07:04;11.70;99.90
14119;DHT22;7138;49.246;9.100;2023-03-30T07:09:30;11.60;99.90
14119;DHT22;7138;49.246;9.100;2023-03-30T07:11:56;11.60;99.90
14119;DHT22;7138;49.246;9.100;2023-03-30T07:14:24;11.50;99.90
14119;DHT22;7138;49.246;9.100;2023-03-30T07:16:50;11.50;99.90
14119;DHT22;7138;49.246;9.100;2023-03-30T07:19:17;11.50;99.90
14119;DHT22;7138;49.246;9.100;2023-03-30T07:21:43;11.50;99.90
14119;DHT22;7138;49.246;9.100;2023-03-30T07:24:09;11.50;99.90
14119;DHT22;7138;49.246;9.100;2023-03-30T07:26:35;11.60;99.90
14119;DHT22;7138;49.246;9.100;2023-03-30T07:29:01;11.60;99.90
14119;DHT22;7138;49.246;9.100;2023-03-30T07:31:28;11.60;99.90
14119;DHT22;7138;49.246;9.100;2023-03-30T07:33:54;11.60;99.90
14119;DHT22;7138;49.246;9.100;2023-03-30T07:36:20;11.50;99.90
14119;DHT22;7138;49.246;9.100;2023-03-30T07:38:46;11.50;99.90
14119;DHT22;7138;49.246;9.100;2023-03-30T07:41:13;11.40;99.90
14119;DHT22;7138;49.246;9.100;2023-03-30T07:43:40;11.40;99.90
14119;DHT22;7138;49.246;9.100;2023-03-30T07:46:07;11.40;99.90
14119;DHT22;7138;49.246;9.100;2023-03-30T07:48:35;11.40;99.90
14119;DHT22;7138;49.246;9.100;2023-03-30T07:51:02;11.40;99.90
14119;DHT22;7138;49.246;9.100;2023-03-30T07:53:31;11.40;99.90
14119;DHT22;7138;49.246;9.100;2023-03-30T07:55:58;11.40;99.90
14119;DHT22;7138;49.246;9.100;2023-03-30T07:58:24;11.40;99.90
14119;DHT22;7138;49.246;9.100;2023-03-30T08:00:52;11.40;99.90
14119;DHT22;7138;49.246;9.100;2023-03-30T08:03:18;11.40;99.90
14119;DHT22;7138;49.246;9.100;2023-03-30T08:05:53;11.40;99.90
14119;DHT22;7138;49.246;9.100;2023-03-30T08:08:19;11.50;99.90
14119;DHT22;7138;49.246;9.100;2023-03-30T08:10:45;11.50;99.90
14119;DHT22;7138;49.246;9.100;2023-03-30T08:13:11;11.50;99.90
14119;DHT22;7138;49.246;9.100;2023-03-30T08:15:37;11.50;99.90
14119;DHT22;7138;49.246;9.100;2023-03-30T08:18:03;11.50;99.90
14119;DHT22;7138;49.246;9.100;2023-03-30T08:20:32;11.50;99.90
14119;DHT22;7138;49.246;9.100;2023-03-30T08:22:59;11.50;99.90
14119;DHT22;7138;49.246;9.100;2023-03-30T08:25:26;11.40;99.90
14119;DHT22;7138;49.246;9.100;2023-03-30T08:27:51;11.40;99.90
14119;DHT22;7138;49.246;9.100;2023-03-30T08:30:17;11.40;99.90
14119;DHT22;7138;49.246;9.100;2023-03-30T08:32:43;11.40;99.90
14119;DHT22;7138;49.246;9.100;2023-03-30T08:35:10;11.40;99.90
14119;DHT22;7138;49.246;9.100;2023-03-30T08:37:38;11.40;99.90
14119;DHT22;7138;49.246;9.100;2023-03-30T08:40:08;11.40;99.90
14119;DHT22;7138;49.246;9.100;2023-03-30T08:42:50;11.50;99.90
14119;DHT22;7138;49.246;9.100;2023-03-30T08:45:33;11.50;99.90
14119;DHT22;7138;49.246;9.100;2023-03-30T08:48:01;11.50;99.90
14119;DHT22;7138;49.246;9.100;2023-03-30T08:50:30;11.50;99.90
14119;DHT22;7138;49.246;9.100;2023-03-30T08:52:57;11.50;99.90
14119;DHT22;7138;49.246;9.100;2023-03-30T08:55:29;11.50;99.90
14119;DHT22;7138;49.246;9.100;2023-03-30T08:57:59;11.50;99.90
14119;DHT22;7138;49.246;9.100;2023-03-30T09:00:35;11.60;99.90
14119;DHT22;7138;49.246;9.100;2023-03-30T09:03:15;11.70;99.90
14119;DHT22;7138;49.246;9.100;2023-03-30T09:05:48;11.90;99.90
14119;DHT22;7138;49.246;9.100;2023-03-30T09:08:19;12.00;99.90
14119;DHT22;7138;49.246;9.100;2023-03-30T09:10:51;12.20;99.90
14119;DHT22;7138;49.246;9.100;2023-03-30T09:13:23;12.30;99.90
14119;DHT22;7138;49.246;9.100;2023-03-30T09:15:55;12.50;99.90
14119;DHT22;7138;49.246;9.100;2023-03-30T09:18:29;12.40;99.90
14119;DHT22;7138;49.246;9.100;2023-03-30T09:20:57;12.40;99.90
14119;DHT22;7138;49.246;9.100;2023-03-30T09:23:26;12.30;99.90
14119;DHT22;7138;49.246;9.100;2023-03-30T09:26:04;12.20;99.90
14119;DHT22;7138;49.246;9.100;2023-03-30T09:28:45;12.20;99.90
14119;DHT22;7138;49.246;9.100;2023-03-30T09:31:19;12.10;99.90
14119;DHT22;7138;49.246;9.100;2023-03-30T09:33:51;12.10;99.90
14119;DHT22;7138;49.246;9.100;2023-03-30T09:36:27;12.00;99.90
14119;DHT22;7138;49.246;9.100;2023-03-30T09:38:59;12.00;99.90
14119;DHT22;7138;49.246;9.100;2023-03-30T09:41:42;12.00;99.90
14119;DHT22;7138;49.246;9.100;2023-03-30T09:44:21;12.20;99.90
14119;DHT22;7138;49.246;9.100;2023-03-30T09:46:53;12.20;99.90
14119;DHT22;7138;49.246;9.100;2023-03-30T09:49:25;12.20;99.90
14119;DHT22;7138;49.246;9.100;2023-03-30T09:52:00;12.20;99.90
14119;DHT22;7138;49.246;9.100;2023-03-30T09:54:34;12.30;99.90
14119;DHT22;7138;49.246;9.100;2023-03-30T09:57:03;12.30;99.90
14119;DHT22;7138;49.246;9.100;2023-03-30T09:59:31;12.30;99.90
14119;DHT22;7138;49.246;9.100;2023-03-30T10:02:17;12.40;99.90
14119;DHT22;7138;49.246;9.100;2023-03-30T10:05:01;12.40;99.90
14119;DHT22;7138;49.246;9.100;2023-03-30T10:07:31;12.50;99.90
14119;DHT22;7138;49.246;9.100;2023-03-30T10:10:00;12.40;99.90
14119;DHT22;7138;49.246;9.100;2023-03-30T10:12:38;12.40;99.90
14119;DHT22;7138;49.246;9.100;2023-03-30T10:15:05;12.40;99.90
14119;DHT22;7138;49.246;9.100;2023-03-30T10:17:39;12.40;99.90
14119;DHT22;7138;49.246;9.100;2023-03-30T10:20:33;12.40;99.90
14119;DHT22;7138;49.246;9.100;2023-03-30T10:23:03;12.40;99.90
14119;DHT22;7138;49.246;9.100;2023-03-30T10:25:33;12.40;99.90
14119;DHT22;7138;49.246;9.100;2023-03-30T10:28:02;12.40;99.90
14119;DHT22;7138;49.246;9.100;2023-03-30T10:30:31;12.40;99.90
14119;DHT22;7138;49.246;9.100;2023-03-30T10:33:00;12.40;99.90
14119;DHT22;7138;49.246;9.100;2023-03-30T10:35:31;12.50;99.90
14119;DHT22;7138;49.246;9.100;2023-03-30T10:38:01;12.50;99.90
14119;DHT22;7138;49.246;9.100;2023-03-30T10:40:32;12.50;99.90
14119;DHT22;7138;49.246;9.100;2023-03-30T10:43:05;12.50;99.90
14119;DHT22;7138;49.246;9.100;2023-03-30T10:45:39;12.50;99.90
14119;DHT22;7138;49.246;9.100;2023-03-30T10:48:22;12.70;99.90
14119;DHT22;7138;49.246;9.100;2023-03-30T10:51:14;12.80;99.90
14119;DHT22;7138;49.246;9.100;2023-03-30T10:53:51;12.90;99.90
14119;DHT22;7138;49.246;9.100;2023-03-30T10:56:28;13.10;99.90
14119;DHT22;7138;49.246;9.100;2023-03-30T10:59:23;13.10;99.90
14119;DHT22;7138;49.246;9.100;2023-03-30T11:02:34;13.10;99.90
14119;DHT22;7138;49.246;9.100;2023-03-30T11:05:11;13.10;99.90
14119;DHT22;7138;49.246;9.100;2023-03-30T11:07:44;13.20;99.90
14119;DHT22;7138;49.246;9.100;2023-03-30T11:10:16;13.90;99.90
14119;DHT22;7138;49.246;9.100;2023-03-30T11:12:48;14.40;99.90
14119;DHT22;7138;49.246;9.100;2023-03-30T11:15:25;14.20;99.90
14119;DHT22;7138;49.246;9.100;2023-03-30T11:18:01;14.00;99.90
14119;DHT22;7138;49.246;9.100;2023-03-30T11:20:36;14.10;99.90
14119;DHT22;7138;49.246;9.100;2023-03-30T11:23:15;14.20;99.90
14119;DHT22;7138;49.246;9.100;2023-03-30T11:25:54;14.10;99.90
14119;DHT22;7138;49.246;9.100;2023-03-30T11:31:38;14.10;99.90
14119;DHT22;7138;49.246;9.100;2023-03-30T11:34:16;14.00;99.90
14119;DHT22;7138;49.246;9.100;2023-03-30T11:36:56;14.00;99.90
14119;DHT22;7138;49.246;9.100;2023-03-30T11:39:31;14.00;99.90
14119;DHT22;7138;49.246;9.100;2023-03-30T11:42:09;13.90;99.90
14119;DHT22;7138;49.246;9.100;2023-03-30T11:44:39;14.00;99.90
14119;DHT22;7138;49.246;9.100;2023-03-30T11:47:19;14.10;99.90
14119;DHT22;7138;49.246;9.100;2023-03-30T11:50:09;14.30;99.90
14119;DHT22;7138;49.246;9.100;2023-03-30T11:52:54;15.10;99.90
14119;DHT22;7138;49.246;9.100;2023-03-30T11:55:45;15.50;99.90
14119;DHT22;7138;49.246;9.100;2023-03-30T11:58:28;15.90;99.90
14119;DHT22;7138;49.246;9.100;2023-03-30T12:01:19;15.60;99.90
14119;DHT22;7138;49.246;9.100;2023-03-30T12:03:56;15.40;99.90
14119;DHT22;7138;49.246;9.100;2023-03-30T12:06:31;15.00;99.90
14119;DHT22;7138;49.246;9.100;2023-03-30T12:11:48;14.60;99.90
14119;DHT22;7138;49.246;9.100;2023-03-30T12:17:44;14.50;99.90
14119;DHT22;7138;49.246;9.100;2023-03-30T12:20:24;14.50;99.90
14119;DHT22;7138;49.246;9.100;2023-03-30T12:23:01;14.90;99.90
14119;DHT22;7138;49.246;9.100;2023-03-30T12:25:55;15.50;99.90
14119;DHT22;7138;49.246;9.100;2023-03-30T12:28:47;16.10;99.90
14119;DHT22;7138;49.246;9.100;2023-03-30T12:31:22;15.80;99.90
14119;DHT22;7138;49.246;9.100;2023-03-30T12:33:49;15.90;99.90
14119;DHT22;7138;49.246;9.100;2023-03-30T12:36:34;15.60;99.90
14119;DHT22;7138;49.246;9.100;2023-03-30T12:39:06;15.20;99.90
14119;DHT22;7138;49.246;9.100;2023-03-30T12:41:40;15.10;99.90
14119;DHT22;7138;49.246;9.100;2023-03-30T12:44:34;15.20;99.90
14119;DHT22;7138;49.246;9.100;2023-03-30T12:47:22;15.30;99.90
14119;DHT22;7138;49.246;9.100;2023-03-30T12:50:09;15.70;99.90
14119;DHT22;7138;49.246;9.100;2023-03-30T12:52:51;15.50;99.90
14119;DHT22;7138;49.246;9.100;2023-03-30T12:55:37;15.50;99.90
14119;DHT22;7138;49.246;9.100;2023-03-30T13:01:49;16.00;99.90
14119;DHT22;7138;49.246;9.100;2023-03-30T13:04:26;16.70;99.90
14119;DHT22;7138;49.246;9.100;2023-03-30T13:07:01;17.30;99.90
14119;DHT22;7138;49.246;9.100;2023-03-30T13:09:49;17.00;99.90
14119;DHT22;7138;49.246;9.100;2023-03-30T13:12:29;17.30;99.90
14119;DHT22;7138;49.246;9.100;2023-03-30T13:14:59;17.40;99.90
14119;DHT22;7138;49.246;9.100;2023-03-30T13:17:47;16.90;99.90
14119;DHT22;7138;49.246;9.100;2023-03-30T13:20:27;16.80;99.90
14119;DHT22;7138;49.246;9.100;2023-03-30T13:23:02;15.90;99.90
14119;DHT22;7138;49.246;9.100;2023-03-30T13:26:01;15.60;99.90
14119;DHT22;7138;49.246;9.100;2023-03-30T13:28:32;15.40;99.90
14119;DHT22;7138;49.246;9.100;2023-03-30T13:31:07;15.20;99.90
14119;DHT22;7138;49.246;9.100;2023-03-30T13:33:48;15.20;99.90
14119;DHT22;7138;49.246;9.100;2023-03-30T13:36:23;15.10;99.90
14119;DHT22;7138;49.246;9.100;2023-03-30T13:39:06;15.00;99.90
14119;DHT22;7138;49.246;9.100;2023-03-30T13:41:47;14.90;99.90
14119;DHT22;7138;49.246;9.100;2023-03-30T13:44:32;14.80;99.90
14119;DHT22;7138;49.246;9.100;2023-03-30T13:47:18;14.70;99.90
14119;DHT22;7138;49.246;9.100;2023-03-30T13:49:58;14.60;99.90
14119;DHT22;7138;49.246;9.100;2023-03-30T13:52:32;14.70;99.90
14119;DHT22;7138;49.246;9.100;2023-03-30T13:55:01;14.80;99.90
14119;DHT22;7138;49.246;9.100;2023-03-30T13:57:33;14.60;99.90
14119;DHT22;7138;49.246;9.100;2023-03-30T14:00:06;14.20;99.90
14119;DHT22;7138;49.246;9.100;2023-03-30T14:02:41;13.80;99.90
14119;DHT22;7138;49.246;9.100;2023-03-30T14:05:12;13.70;99.90
14119;DHT22;7138;49.246;9.100;2023-03-30T14:07:45;13.70;99.90
14119;DHT22;7138;49.246;9.100;2023-03-30T14:10:14;13.60;99.90
14119;DHT22;7138;49.246;9.100;2023-03-30T14:12:42;13.70;99.90
14119;DHT22;7138;49.246;9.100;2023-03-30T14:15:15;13.70;99.90
14119;DHT22;7138;49.246;9.100;2023-03-30T14:17:47;13.80;99.90
14119;DHT22;7138;49.246;9.100;2023-03-30T14:20:23;13.70;99.90
14119;DHT22;7138;49.246;9.100;2023-03-30T14:23:00;13.80;99.90
14119;DHT22;7138;49.246;9.100;2023-03-30T14:25:29;13.90;99.90
14119;DHT22;7138;49.246;9.100;2023-03-30T14:28:02;14.30;99.90
14119;DHT22;7138;49.246;9.100;2023-03-30T14:30:32;14.50;99.90
14119;DHT22;7138;49.246;9.100;2023-03-30T14:33:06;14.60;99.90
14119;DHT22;7138;49.246;9.100;2023-03-30T14:35:38;14.40;99.90
14119;DHT22;7138;49.246;9.100;2023-03-30T14:38:08;14.30;99.90
14119;DHT22;7138;49.246;9.100;2023-03-30T14:40:41;14.10;99.90
14119;DHT22;7138;49.246;9.100;2023-03-30T14:43:12;14.00;99.90
14119;DHT22;7138;49.246;9.100;2023-03-30T14:45:40;14.20;99.90
14119;DHT22;7138;49.246;9.100;2023-03-30T14:48:08;14.20;99.90
14119;DHT22;7138;49.246;9.100;2023-03-30T14:50:40;14.20;99.90
14119;DHT22;7138;49.246;9.100;2023-03-30T14:53:07;14.40;99.90
14119;DHT22;7138;49.246;9.100;2023-03-30T14:55:35;15.10;99.90
14119;DHT22;7138;49.246;9.100;2023-03-30T14:58:02;15.20;99.90
14119;DHT22;7138;49.246;9.100;2023-03-30T15:00:30;14.90;99.90
14119;DHT22;7138;49.246;9.100;2023-03-30T15:02:58;14.90;99.90
14119;DHT22;7138;49.246;9.100;2023-03-30T15:05:28;15.00;99.90
14119;DHT22;7138;49.246;9.100;2023-03-30T15:07:56;14.70;99.90
14119;DHT22;7138;49.246;9.100;2023-03-30T15:10:25;14.60;99.90
14119;DHT22;7138;49.246;9.100;2023-03-30T15:12:55;14.90;99.90
14119;DHT22;7138;49.246;9.100;2023-03-30T15:15:25;15.30;99.90
14119;DHT22;7138;49.246;9.100;2023-03-30T15:17:56;15.50;99.90
14119;DHT22;7138;49.246;9.100;2023-03-30T15:20:24;15.40;99.90
14119;DHT22;7138;49.246;9.100;2023-03-30T15:22:53;15.30;99.90
14119;DHT22;7138;49.246;9.100;2023-03-30T15:25:22;15.00;99.90
14119;DHT22;7138;49.246;9.100;2023-03-30T15:27:56;14.90;99.90
14119;DHT22;7138;49.246;9.100;2023-03-30T15:30:28;15.10;99.90
14119;DHT22;7138;49.246;9.100;2023-03-30T15:32:58;15.20;99.90
14119;DHT22;7138;49.246;9.100;2023-03-30T15:35:26;15.40;99.90
14119;DHT22;7138;49.246;9.100;2023-03-30T15:37:57;15.50;99.90
14119;DHT22;7138;49.246;9.100;2023-03-30T15:40:28;15.60;99.90
14119;DHT22;7138;49.246;9.100;2023-03-30T15:43:13;15.30;99.90
14119;DHT22;7138;49.246;9.100;2023-03-30T15:45:44;15.00;99.90
14119;DHT22;7138;49.246;9.100;2023-03-30T15:48:16;14.90;99.90
14119;DHT22;7138;49.246;9.100;2023-03-30T15:50:47;15.00;99.90
14119;DHT22;7138;49.246;9.100;2023-03-30T15:53:21;15.20;99.90
14119;DHT22;7138;49.246;9.100;2023-03-30T15:56:11;15.20;99.90
14119;DHT22;7138;49.246;9.100;2023-03-30T15:58:42;15.30;99.90
14119;DHT22;7138;49.246;9.100;2023-03-30T16:01:11;15.30;99.90
14119;DHT22;7138;49.246;9.100;2023-03-30T16:03:49;15.50;99.90
14119;DHT22;7138;49.246;9.100;2023-03-30T16:06:19;15.30;99.90
14119;DHT22;7138;49.246;9.100;2023-03-30T16:08:46;15.20;99.90
14119;DHT22;7138;49.246;9.100;2023-03-30T16:11:13;15.30;99.90
14119;DHT22;7138;49.246;9.100;2023-03-30T16:13:42;15.30;99.90
14119;DHT22;7138;49.246;9.100;2023-03-30T16:16:10;15.30;99.90
14119;DHT22;7138;49.246;9.100;2023-03-30T16:18:39;15.00;99.90
14119;DHT22;7138;49.246;9.100;2023-03-30T16:21:06;15.00;99.90
14119;DHT22;7138;49.246;9.100;2023-03-30T16:23:32;14.90;99.90
14119;DHT22;7138;49.246;9.100;2023-03-30T16:25:58;14.90;99.90
14119;DHT22;7138;49.246;9.100;2023-03-30T16:28:24;14.90;99.90
14119;DHT22;7138;49.246;9.100;2023-03-30T16:30:52;15.00;99.90
14119;DHT22;7138;49.246;9.100;2023-03-30T16:33:22;15.00;99.90
14119;DHT22;7138;49.246;9.100;2023-03-30T16:35:50;14.90;99.90
14119;DHT22;7138;49.246;9.100;2023-03-30T16:38:16;14.80;99.90